sensor_id;sensor_type;location;lat;lon;timestamp;P1;durP1;ratioP1;P2;durP2;ratioP2
10605;SDS011;5350;42.698;23.148;2022-11-06T00:01:26;27.70;;;18.40;;
10605;SDS011;5350;42.698;23.148;2022-11-06T00:03:52;24.93;;;19.03;;
10605;SDS011;5350;42.698;23.148;2022-11-06T00:06:19;24.57;;;19.33;;
10605;SDS011;5350;42.698;23.148;2022-11-06T00:09:05;24.90;;;17.60;;
10605;SDS011;5350;42.698;23.148;2022-11-06T00:11:34;28.43;;;19.57;;
10605;SDS011;5350;42.698;23.148;2022-11-06T00:14:01;24.83;;;19.50;;
10605;SDS011;5350;42.698;23.148;2022-11-06T00:16:28;28.53;;;19.47;;
10605;SDS011;5350;42.698;23.148;2022-11-06T00:18:55;31.33;;;20.17;;
10605;SDS011;5350;42.698;23.148;2022-11-06T00:21:25;25.57;;;19.60;;
10605;SDS011;5350;42.698;23.148;2022-11-06T00:23:54;28.70;;;20.47;;
10605;SDS011;5350;42.698;23.148;2022-11-06T00:26:22;28.90;;;21.10;;
10605;SDS011;5350;42.698;23.148;2022-11-06T00:28:52;34.07;;;20.10;;
10605;SDS011;5350;42.698;23.148;2022-11-06T00:31:20;34.00;;;21.17;;
10605;SDS011;5350;42.698;23.148;2022-11-06T00:33:47;35.03;;;22.17;;
10605;SDS011;5350;42.698;23.148;2022-11-06T00:36:15;32.40;;;22.17;;
10605;SDS011;5350;42.698;23.148;2022-11-06T00:38:44;32.40;;;21.97;;
10605;SDS011;5350;42.698;23.148;2022-11-06T00:41:12;30.33;;;22.27;;
10605;SDS011;5350;42.698;23.148;2022-11-06T00:43:40;30.17;;;22.70;;
10605;SDS011;5350;42.698;23.148;2022-11-06T00:46:09;27.00;;;20.20;;
10605;SDS011;5350;42.698;23.148;2022-11-06T00:48:37;29.20;;;21.27;;
10605;SDS011;5350;42.698;23.148;2022-11-06T00:51:06;34.37;;;22.67;;
10605;SDS011;5350;42.698;23.148;2022-11-06T00:53:34;26.40;;;20.60;;
10605;SDS011;5350;42.698;23.148;2022-11-06T00:56:05;28.20;;;20.43;;
10605;SDS011;5350;42.698;23.148;2022-11-06T00:58:33;28.37;;;21.17;;
10605;SDS011;5350;42.698;23.148;2022-11-06T01:01:04;29.93;;;21.03;;
10605;SDS011;5350;42.698;23.148;2022-11-06T01:03:34;29.17;;;21.10;;
10605;SDS011;5350;42.698;23.148;2022-11-06T01:06:04;32.47;;;21.23;;
10605;SDS011;5350;42.698;23.148;2022-11-06T01:08:32;30.97;;;23.37;;
10605;SDS011;5350;42.698;23.148;2022-11-06T01:11:04;34.23;;;23.97;;
10605;SDS011;5350;42.698;23.148;2022-11-06T01:13:32;30.67;;;21.57;;
10605;SDS011;5350;42.698;23.148;2022-11-06T01:15:59;29.37;;;21.60;;
10605;SDS011;5350;42.698;23.148;2022-11-06T01:18:27;34.17;;;22.10;;
10605;SDS011;5350;42.698;23.148;2022-11-06T01:20:55;32.83;;;22.53;;
10605;SDS011;5350;42.698;23.148;2022-11-06T01:23:21;30.13;;;21.13;;
10605;SDS011;5350;42.698;23.148;2022-11-06T01:25:54;29.20;;;20.70;;
10605;SDS011;5350;42.698;23.148;2022-11-06T01:28:22;29.00;;;21.13;;
10605;SDS011;5350;42.698;23.148;2022-11-06T01:30:49;31.37;;;21.37;;
10605;SDS011;5350;42.698;23.148;2022-11-06T01:33:15;35.13;;;23.27;;
10605;SDS011;5350;42.698;23.148;2022-11-06T01:35:43;32.70;;;22.00;;
10605;SDS011;5350;42.698;23.148;2022-11-06T01:38:11;32.67;;;22.77;;
10605;SDS011;5350;42.698;23.148;2022-11-06T01:40:39;35.67;;;23.90;;
10605;SDS011;5350;42.698;23.148;2022-11-06T01:43:09;38.00;;;25.13;;
10605;SDS011;5350;42.698;23.148;2022-11-06T01:45:40;36.77;;;23.30;;
10605;SDS011;5350;42.698;23.148;2022-11-06T01:48:09;35.73;;;23.87;;
10605;SDS011;5350;42.698;23.148;2022-11-06T01:50:37;34.03;;;24.23;;
10605;SDS011;5350;42.698;23.148;2022-11-06T01:53:05;32.93;;;24.80;;
10605;SDS011;5350;42.698;23.148;2022-11-06T01:55:35;37.03;;;23.60;;
10605;SDS011;5350;42.698;23.148;2022-11-06T01:58:05;32.07;;;22.77;;
10605;SDS011;5350;42.698;23.148;2022-11-06T02:00:34;34.73;;;23.00;;
10605;SDS011;5350;42.698;23.148;2022-11-06T02:03:01;35.93;;;23.37;;
10605;SDS011;5350;42.698;23.148;2022-11-06T02:05:29;35.73;;;23.30;;
10605;SDS011;5350;42.698;23.148;2022-11-06T02:07:56;33.23;;;23.80;;
10605;SDS011;5350;42.698;23.148;2022-11-06T02:10:24;34.40;;;22.97;;
10605;SDS011;5350;42.698;23.148;2022-11-06T02:12:54;38.43;;;24.90;;
10605;SDS011;5350;42.698;23.148;2022-11-06T02:15:32;35.47;;;23.73;;
10605;SDS011;5350;42.698;23.148;2022-11-06T02:18:15;33.47;;;23.13;;
10605;SDS011;5350;42.698;23.148;2022-11-06T02:20:53;32.33;;;23.60;;
10605;SDS011;5350;42.698;23.148;2022-11-06T02:23:39;34.27;;;23.00;;
10605;SDS011;5350;42.698;23.148;2022-11-06T02:26:22;31.37;;;22.67;;
10605;SDS011;5350;42.698;23.148;2022-11-06T02:28:59;32.53;;;23.60;;
10605;SDS011;5350;42.698;23.148;2022-11-06T02:31:31;32.70;;;22.77;;
10605;SDS011;5350;42.698;23.148;2022-11-06T02:34:01;34.00;;;24.43;;
10605;SDS011;5350;42.698;23.148;2022-11-06T02:36:31;31.80;;;22.13;;
10605;SDS011;5350;42.698;23.148;2022-11-06T02:39:02;28.63;;;22.07;;
10605;SDS011;5350;42.698;23.148;2022-11-06T02:41:33;33.77;;;23.37;;
10605;SDS011;5350;42.698;23.148;2022-11-06T02:44:06;31.13;;;22.47;;
10605;SDS011;5350;42.698;23.148;2022-11-06T02:46:38;31.77;;;21.23;;
10605;SDS011;5350;42.698;23.148;2022-11-06T02:49:10;35.50;;;22.03;;
10605;SDS011;5350;42.698;23.148;2022-11-06T02:51:42;36.97;;;21.70;;
10605;SDS011;5350;42.698;23.148;2022-11-06T02:54:12;29.27;;;22.23;;
10605;SDS011;5350;42.698;23.148;2022-11-06T02:56:41;31.23;;;21.33;;
10605;SDS011;5350;42.698;23.148;2022-11-06T02:59:14;32.00;;;21.60;;
10605;SDS011;5350;42.698;23.148;2022-11-06T03:01:44;31.13;;;21.80;;
10605;SDS011;5350;42.698;23.148;2022-11-06T03:04:17;33.10;;;20.87;;
10605;SDS011;5350;42.698;23.148;2022-11-06T03:06:48;30.47;;;20.03;;
10605;SDS011;5350;42.698;23.148;2022-11-06T03:09:19;29.97;;;21.37;;
10605;SDS011;5350;42.698;23.148;2022-11-06T03:11:52;31.30;;;21.10;;
10605;SDS011;5350;42.698;23.148;2022-11-06T03:14:28;29.87;;;21.10;;
10605;SDS011;5350;42.698;23.148;2022-11-06T03:16:58;29.73;;;19.93;;
10605;SDS011;5350;42.698;23.148;2022-11-06T03:19:26;27.57;;;19.97;;
10605;SDS011;5350;42.698;23.148;2022-11-06T03:22:00;25.60;;;19.10;;
10605;SDS011;5350;42.698;23.148;2022-11-06T03:24:36;32.93;;;19.97;;
10605;SDS011;5350;42.698;23.148;2022-11-06T03:27:11;23.47;;;18.53;;
10605;SDS011;5350;42.698;23.148;2022-11-06T03:29:42;26.00;;;19.17;;
10605;SDS011;5350;42.698;23.148;2022-11-06T03:32:13;25.67;;;19.93;;
10605;SDS011;5350;42.698;23.148;2022-11-06T03:34:44;30.70;;;19.40;;
10605;SDS011;5350;42.698;23.148;2022-11-06T03:37:17;28.07;;;20.23;;
10605;SDS011;5350;42.698;23.148;2022-11-06T03:39:49;29.57;;;19.63;;
10605;SDS011;5350;42.698;23.148;2022-11-06T03:42:20;27.43;;;19.40;;
10605;SDS011;5350;42.698;23.148;2022-11-06T03:44:51;24.40;;;18.67;;
10605;SDS011;5350;42.698;23.148;2022-11-06T03:47:24;28.83;;;19.70;;
10605;SDS011;5350;42.698;23.148;2022-11-06T03:49:56;27.73;;;19.47;;
10605;SDS011;5350;42.698;23.148;2022-11-06T03:52:27;26.27;;;18.40;;
10605;SDS011;5350;42.698;23.148;2022-11-06T03:54:59;28.00;;;19.40;;
10605;SDS011;5350;42.698;23.148;2022-11-06T03:57:29;28.27;;;18.47;;
10605;SDS011;5350;42.698;23.148;2022-11-06T04:00:03;27.97;;;19.00;;
10605;SDS011;5350;42.698;23.148;2022-11-06T04:02:32;28.63;;;19.50;;
10605;SDS011;5350;42.698;23.148;2022-11-06T04:05:04;26.13;;;17.87;;
10605;SDS011;5350;42.698;23.148;2022-11-06T04:07:34;24.13;;;17.70;;
10605;SDS011;5350;42.698;23.148;2022-11-06T04:10:04;23.03;;;16.83;;
10605;SDS011;5350;42.698;23.148;2022-11-06T04:12:53;28.40;;;16.60;;
10605;SDS011;5350;42.698;23.148;2022-11-06T04:15:43;23.07;;;15.60;;
10605;SDS011;5350;42.698;23.148;2022-11-06T04:18:16;25.27;;;16.23;;
10605;SDS011;5350;42.698;23.148;2022-11-06T04:20:46;20.80;;;15.50;;
10605;SDS011;5350;42.698;23.148;2022-11-06T04:23:39;24.07;;;16.23;;
10605;SDS011;5350;42.698;23.148;2022-11-06T04:26:34;24.30;;;16.77;;
10605;SDS011;5350;42.698;23.148;2022-11-06T04:29:08;21.20;;;15.70;;
10605;SDS011;5350;42.698;23.148;2022-11-06T04:31:45;22.67;;;16.00;;
10605;SDS011;5350;42.698;23.148;2022-11-06T04:34:26;23.03;;;14.70;;
10605;SDS011;5350;42.698;23.148;2022-11-06T04:37:04;23.07;;;15.00;;
10605;SDS011;5350;42.698;23.148;2022-11-06T04:39:36;23.63;;;15.13;;
10605;SDS011;5350;42.698;23.148;2022-11-06T04:42:13;24.63;;;15.47;;
10605;SDS011;5350;42.698;23.148;2022-11-06T04:44:48;19.07;;;15.33;;
10605;SDS011;5350;42.698;23.148;2022-11-06T04:47:20;22.63;;;17.27;;
10605;SDS011;5350;42.698;23.148;2022-11-06T04:49:49;19.97;;;15.53;;
10605;SDS011;5350;42.698;23.148;2022-11-06T04:52:19;23.53;;;15.23;;
10605;SDS011;5350;42.698;23.148;2022-11-06T04:54:50;18.37;;;13.97;;
10605;SDS011;5350;42.698;23.148;2022-11-06T04:57:18;20.37;;;14.03;;
10605;SDS011;5350;42.698;23.148;2022-11-06T04:59:47;17.97;;;13.47;;
10605;SDS011;5350;42.698;23.148;2022-11-06T05:02:13;16.77;;;13.43;;
10605;SDS011;5350;42.698;23.148;2022-11-06T05:04:41;18.30;;;12.90;;
10605;SDS011;5350;42.698;23.148;2022-11-06T05:07:09;19.03;;;13.83;;
10605;SDS011;5350;42.698;23.148;2022-11-06T05:09:38;21.23;;;12.90;;
10605;SDS011;5350;42.698;23.148;2022-11-06T05:12:05;16.97;;;12.83;;
10605;SDS011;5350;42.698;23.148;2022-11-06T05:14:32;21.37;;;13.27;;
10605;SDS011;5350;42.698;23.148;2022-11-06T05:16:59;17.70;;;13.20;;
10605;SDS011;5350;42.698;23.148;2022-11-06T05:19:25;17.73;;;12.50;;
10605;SDS011;5350;42.698;23.148;2022-11-06T05:21:53;18.23;;;12.37;;
10605;SDS011;5350;42.698;23.148;2022-11-06T05:24:37;20.70;;;12.23;;
10605;SDS011;5350;42.698;23.148;2022-11-06T05:27:04;15.60;;;12.37;;
10605;SDS011;5350;42.698;23.148;2022-11-06T05:29:31;18.30;;;12.87;;
10605;SDS011;5350;42.698;23.148;2022-11-06T05:31:58;17.90;;;12.97;;
10605;SDS011;5350;42.698;23.148;2022-11-06T05:34:24;16.10;;;11.93;;
10605;SDS011;5350;42.698;23.148;2022-11-06T05:36:51;17.83;;;13.33;;
10605;SDS011;5350;42.698;23.148;2022-11-06T05:39:19;17.43;;;13.53;;
10605;SDS011;5350;42.698;23.148;2022-11-06T05:41:46;20.77;;;14.10;;
10605;SDS011;5350;42.698;23.148;2022-11-06T05:44:13;18.43;;;13.83;;
10605;SDS011;5350;42.698;23.148;2022-11-06T05:46:39;19.90;;;14.03;;
10605;SDS011;5350;42.698;23.148;2022-11-06T05:49:07;21.33;;;13.37;;
10605;SDS011;5350;42.698;23.148;2022-11-06T05:51:34;20.73;;;13.00;;
10605;SDS011;5350;42.698;23.148;2022-11-06T05:54:01;20.20;;;12.63;;
10605;SDS011;5350;42.698;23.148;2022-11-06T05:56:29;19.87;;;13.10;;
10605;SDS011;5350;42.698;23.148;2022-11-06T05:58:56;16.67;;;12.70;;
10605;SDS011;5350;42.698;23.148;2022-11-06T06:01:23;16.80;;;12.03;;
10605;SDS011;5350;42.698;23.148;2022-11-06T06:03:49;16.33;;;11.97;;
10605;SDS011;5350;42.698;23.148;2022-11-06T06:06:16;18.53;;;12.67;;
10605;SDS011;5350;42.698;23.148;2022-11-06T06:08:45;19.17;;;12.47;;
10605;SDS011;5350;42.698;23.148;2022-11-06T06:11:11;17.30;;;12.23;;
10605;SDS011;5350;42.698;23.148;2022-11-06T06:13:39;17.90;;;13.10;;
10605;SDS011;5350;42.698;23.148;2022-11-06T06:16:06;18.13;;;12.37;;
10605;SDS011;5350;42.698;23.148;2022-11-06T06:18:33;16.10;;;11.43;;
10605;SDS011;5350;42.698;23.148;2022-11-06T06:20:59;15.20;;;11.57;;
10605;SDS011;5350;42.698;23.148;2022-11-06T06:23:26;19.57;;;12.63;;
10605;SDS011;5350;42.698;23.148;2022-11-06T06:25:54;15.83;;;11.53;;
10605;SDS011;5350;42.698;23.148;2022-11-06T06:28:22;17.13;;;11.90;;
10605;SDS011;5350;42.698;23.148;2022-11-06T06:30:50;22.80;;;12.63;;
10605;SDS011;5350;42.698;23.148;2022-11-06T06:33:16;19.37;;;13.73;;
10605;SDS011;5350;42.698;23.148;2022-11-06T06:35:43;19.20;;;13.23;;
10605;SDS011;5350;42.698;23.148;2022-11-06T06:38:10;18.07;;;12.67;;
10605;SDS011;5350;42.698;23.148;2022-11-06T06:40:37;15.50;;;11.97;;
10605;SDS011;5350;42.698;23.148;2022-11-06T06:43:03;15.47;;;11.40;;
10605;SDS011;5350;42.698;23.148;2022-11-06T06:45:30;17.07;;;12.50;;
10605;SDS011;5350;42.698;23.148;2022-11-06T06:48:01;20.70;;;12.63;;
10605;SDS011;5350;42.698;23.148;2022-11-06T06:50:28;20.13;;;12.77;;
10605;SDS011;5350;42.698;23.148;2022-11-06T06:52:55;17.50;;;12.47;;
10605;SDS011;5350;42.698;23.148;2022-11-06T06:55:22;17.87;;;12.40;;
10605;SDS011;5350;42.698;23.148;2022-11-06T06:57:54;16.77;;;12.37;;
10605;SDS011;5350;42.698;23.148;2022-11-06T07:00:22;20.50;;;15.47;;
10605;SDS011;5350;42.698;23.148;2022-11-06T07:02:48;18.27;;;14.30;;
10605;SDS011;5350;42.698;23.148;2022-11-06T07:05:16;18.47;;;13.80;;
10605;SDS011;5350;42.698;23.148;2022-11-06T07:07:43;20.20;;;13.83;;
10605;SDS011;5350;42.698;23.148;2022-11-06T07:10:10;16.70;;;13.43;;
10605;SDS011;5350;42.698;23.148;2022-11-06T07:12:37;21.20;;;13.07;;
10605;SDS011;5350;42.698;23.148;2022-11-06T07:15:04;19.00;;;13.80;;
10605;SDS011;5350;42.698;23.148;2022-11-06T07:17:32;19.27;;;12.67;;
10605;SDS011;5350;42.698;23.148;2022-11-06T07:19:58;17.37;;;13.33;;
10605;SDS011;5350;42.698;23.148;2022-11-06T07:22:27;19.40;;;13.13;;
10605;SDS011;5350;42.698;23.148;2022-11-06T07:24:54;18.60;;;13.77;;
10605;SDS011;5350;42.698;23.148;2022-11-06T07:27:21;21.20;;;13.87;;
10605;SDS011;5350;42.698;23.148;2022-11-06T07:29:48;18.97;;;13.37;;
10605;SDS011;5350;42.698;23.148;2022-11-06T07:32:14;18.67;;;13.67;;
10605;SDS011;5350;42.698;23.148;2022-11-06T07:34:41;18.73;;;12.90;;
10605;SDS011;5350;42.698;23.148;2022-11-06T07:37:07;20.20;;;13.33;;
10605;SDS011;5350;42.698;23.148;2022-11-06T07:39:36;17.17;;;12.77;;
10605;SDS011;5350;42.698;23.148;2022-11-06T07:42:02;17.23;;;12.50;;
10605;SDS011;5350;42.698;23.148;2022-11-06T07:44:29;16.90;;;12.90;;
10605;SDS011;5350;42.698;23.148;2022-11-06T07:46:56;17.93;;;12.03;;
10605;SDS011;5350;42.698;23.148;2022-11-06T07:49:22;16.40;;;11.73;;
10605;SDS011;5350;42.698;23.148;2022-11-06T07:51:49;16.43;;;11.97;;
10605;SDS011;5350;42.698;23.148;2022-11-06T07:54:16;15.93;;;11.93;;
10605;SDS011;5350;42.698;23.148;2022-11-06T07:56:44;16.63;;;12.27;;
10605;SDS011;5350;42.698;23.148;2022-11-06T07:59:11;17.83;;;12.47;;
10605;SDS011;5350;42.698;23.148;2022-11-06T08:01:38;21.73;;;11.80;;
10605;SDS011;5350;42.698;23.148;2022-11-06T08:04:04;17.03;;;12.47;;
10605;SDS011;5350;42.698;23.148;2022-11-06T08:06:31;16.23;;;10.97;;
10605;SDS011;5350;42.698;23.148;2022-11-06T08:08:58;15.30;;;11.43;;
10605;SDS011;5350;42.698;23.148;2022-11-06T08:11:25;18.77;;;10.97;;
10605;SDS011;5350;42.698;23.148;2022-11-06T08:13:53;15.93;;;12.27;;
10605;SDS011;5350;42.698;23.148;2022-11-06T08:16:19;16.23;;;11.10;;
10605;SDS011;5350;42.698;23.148;2022-11-06T08:18:46;16.53;;;10.37;;
10605;SDS011;5350;42.698;23.148;2022-11-06T08:21:13;15.87;;;11.63;;
10605;SDS011;5350;42.698;23.148;2022-11-06T08:23:39;15.30;;;12.17;;
10605;SDS011;5350;42.698;23.148;2022-11-06T08:26:06;15.73;;;12.90;;
10605;SDS011;5350;42.698;23.148;2022-11-06T08:28:33;15.33;;;13.37;;
10605;SDS011;5350;42.698;23.148;2022-11-06T08:31:03;15.75;;;12.90;;
10605;SDS011;5350;42.698;23.148;2022-11-06T08:33:30;19.17;;;13.63;;
10605;SDS011;5350;42.698;23.148;2022-11-06T08:35:59;17.37;;;12.73;;
10605;SDS011;5350;42.698;23.148;2022-11-06T08:38:26;16.52;;;12.50;;
10605;SDS011;5350;42.698;23.148;2022-11-06T08:40:53;18.53;;;13.27;;
10605;SDS011;5350;42.698;23.148;2022-11-06T08:43:20;16.80;;;13.37;;
10605;SDS011;5350;42.698;23.148;2022-11-06T08:45:48;16.83;;;13.65;;
10605;SDS011;5350;42.698;23.148;2022-11-06T08:48:16;16.47;;;12.90;;
10605;SDS011;5350;42.698;23.148;2022-11-06T08:50:43;15.65;;;10.75;;
10605;SDS011;5350;42.698;23.148;2022-11-06T08:53:10;17.47;;;11.77;;
10605;SDS011;5350;42.698;23.148;2022-11-06T08:55:37;16.90;;;11.65;;
10605;SDS011;5350;42.698;23.148;2022-11-06T08:58:04;20.60;;;12.15;;
10605;SDS011;5350;42.698;23.148;2022-11-06T09:00:32;19.88;;;13.57;;
10605;SDS011;5350;42.698;23.148;2022-11-06T09:03:00;17.05;;;13.40;;
10605;SDS011;5350;42.698;23.148;2022-11-06T09:05:30;16.92;;;13.38;;
10605;SDS011;5350;42.698;23.148;2022-11-06T09:07:56;16.70;;;12.02;;
10605;SDS011;5350;42.698;23.148;2022-11-06T09:10:24;17.23;;;12.48;;
10605;SDS011;5350;42.698;23.148;2022-11-06T09:12:52;19.33;;;12.95;;
10605;SDS011;5350;42.698;23.148;2022-11-06T09:15:18;18.60;;;13.23;;
10605;SDS011;5350;42.698;23.148;2022-11-06T09:17:46;19.00;;;14.30;;
10605;SDS011;5350;42.698;23.148;2022-11-06T09:20:14;17.67;;;13.15;;
10605;SDS011;5350;42.698;23.148;2022-11-06T09:22:44;16.27;;;13.30;;
10605;SDS011;5350;42.698;23.148;2022-11-06T09:25:12;19.65;;;13.00;;
10605;SDS011;5350;42.698;23.148;2022-11-06T09:27:41;16.45;;;14.75;;
10605;SDS011;5350;42.698;23.148;2022-11-06T09:30:09;18.52;;;13.75;;
10605;SDS011;5350;42.698;23.148;2022-11-06T09:32:38;19.73;;;13.80;;
10605;SDS011;5350;42.698;23.148;2022-11-06T09:35:10;14.95;;;12.45;;
10605;SDS011;5350;42.698;23.148;2022-11-06T09:37:36;15.25;;;12.35;;
10605;SDS011;5350;42.698;23.148;2022-11-06T09:40:05;17.95;;;14.20;;
10605;SDS011;5350;42.698;23.148;2022-11-06T09:42:36;15.02;;;12.00;;
10605;SDS011;5350;42.698;23.148;2022-11-06T09:45:16;14.48;;;12.30;;
10605;SDS011;5350;42.698;23.148;2022-11-06T09:47:48;16.83;;;11.98;;
10605;SDS011;5350;42.698;23.148;2022-11-06T09:50:23;13.65;;;12.07;;
10605;SDS011;5350;42.698;23.148;2022-11-06T09:52:55;16.67;;;12.85;;
10605;SDS011;5350;42.698;23.148;2022-11-06T09:55:31;16.05;;;13.35;;
10605;SDS011;5350;42.698;23.148;2022-11-06T09:58:02;18.75;;;14.70;;
10605;SDS011;5350;42.698;23.148;2022-11-06T10:00:35;20.00;;;16.05;;
10605;SDS011;5350;42.698;23.148;2022-11-06T10:03:02;20.40;;;16.42;;
10605;SDS011;5350;42.698;23.148;2022-11-06T10:05:37;18.00;;;15.93;;
10605;SDS011;5350;42.698;23.148;2022-11-06T10:08:13;17.52;;;15.63;;
10605;SDS011;5350;42.698;23.148;2022-11-06T10:10:45;17.60;;;15.70;;
10605;SDS011;5350;42.698;23.148;2022-11-06T10:13:23;17.60;;;15.23;;
10605;SDS011;5350;42.698;23.148;2022-11-06T10:16:01;18.88;;;14.60;;
10605;SDS011;5350;42.698;23.148;2022-11-06T10:18:35;17.98;;;14.90;;
10605;SDS011;5350;42.698;23.148;2022-11-06T10:21:10;16.13;;;13.30;;
10605;SDS011;5350;42.698;23.148;2022-11-06T10:23:43;15.90;;;13.13;;
10605;SDS011;5350;42.698;23.148;2022-11-06T10:26:16;14.25;;;12.75;;
10605;SDS011;5350;42.698;23.148;2022-11-06T10:29:00;14.07;;;12.68;;
10605;SDS011;5350;42.698;23.148;2022-11-06T10:31:42;15.63;;;12.90;;
10605;SDS011;5350;42.698;23.148;2022-11-06T10:34:16;16.38;;;12.38;;
10605;SDS011;5350;42.698;23.148;2022-11-06T10:36:49;13.75;;;11.70;;
10605;SDS011;5350;42.698;23.148;2022-11-06T10:39:21;12.95;;;11.15;;
10605;SDS011;5350;42.698;23.148;2022-11-06T10:41:52;18.13;;;14.63;;
10605;SDS011;5350;42.698;23.148;2022-11-06T10:44:27;21.67;;;16.67;;
10605;SDS011;5350;42.698;23.148;2022-11-06T10:46:59;15.80;;;12.73;;
10605;SDS011;5350;42.698;23.148;2022-11-06T10:49:34;13.45;;;12.05;;
10605;SDS011;5350;42.698;23.148;2022-11-06T10:52:19;12.38;;;11.07;;
10605;SDS011;5350;42.698;23.148;2022-11-06T10:55:06;15.07;;;11.00;;
10605;SDS011;5350;42.698;23.148;2022-11-06T10:57:48;12.98;;;11.30;;
10605;SDS011;5350;42.698;23.148;2022-11-06T11:00:17;13.23;;;10.60;;
10605;SDS011;5350;42.698;23.148;2022-11-06T11:02:44;14.68;;;11.23;;
10605;SDS011;5350;42.698;23.148;2022-11-06T11:05:14;11.68;;;10.57;;
10605;SDS011;5350;42.698;23.148;2022-11-06T11:07:43;12.02;;;10.85;;
10605;SDS011;5350;42.698;23.148;2022-11-06T11:12:59;12.52;;;11.32;;
10605;SDS011;5350;42.698;23.148;2022-11-06T11:15:27;12.88;;;11.50;;
10605;SDS011;5350;42.698;23.148;2022-11-06T11:18:08;11.48;;;10.30;;
10605;SDS011;5350;42.698;23.148;2022-11-06T11:20:42;9.63;;;8.73;;
10605;SDS011;5350;42.698;23.148;2022-11-06T11:23:12;9.68;;;8.68;;
10605;SDS011;5350;42.698;23.148;2022-11-06T11:25:41;8.15;;;7.40;;
10605;SDS011;5350;42.698;23.148;2022-11-06T11:28:19;8.27;;;7.32;;
10605;SDS011;5350;42.698;23.148;2022-11-06T11:30:51;10.10;;;8.45;;
10605;SDS011;5350;42.698;23.148;2022-11-06T11:33:20;9.82;;;8.93;;
10605;SDS011;5350;42.698;23.148;2022-11-06T11:35:50;11.27;;;10.10;;
10605;SDS011;5350;42.698;23.148;2022-11-06T11:38:18;12.68;;;9.23;;
10605;SDS011;5350;42.698;23.148;2022-11-06T11:40:46;10.02;;;9.00;;
10605;SDS011;5350;42.698;23.148;2022-11-06T11:43:25;9.13;;;8.20;;
10605;SDS011;5350;42.698;23.148;2022-11-06T11:46:00;11.15;;;8.65;;
10605;SDS011;5350;42.698;23.148;2022-11-06T11:48:39;11.15;;;8.95;;
10605;SDS011;5350;42.698;23.148;2022-11-06T11:51:11;9.50;;;8.52;;
10605;SDS011;5350;42.698;23.148;2022-11-06T11:53:44;9.00;;;7.70;;
10605;SDS011;5350;42.698;23.148;2022-11-06T11:56:12;8.27;;;7.57;;
10605;SDS011;5350;42.698;23.148;2022-11-06T11:58:46;8.10;;;7.30;;
10605;SDS011;5350;42.698;23.148;2022-11-06T12:01:15;8.98;;;8.07;;
10605;SDS011;5350;42.698;23.148;2022-11-06T12:03:43;9.98;;;9.02;;
10605;SDS011;5350;42.698;23.148;2022-11-06T12:06:15;10.43;;;8.70;;
10605;SDS011;5350;42.698;23.148;2022-11-06T12:08:44;9.95;;;8.90;;
10605;SDS011;5350;42.698;23.148;2022-11-06T12:11:14;11.23;;;10.13;;
10605;SDS011;5350;42.698;23.148;2022-11-06T12:13:46;10.37;;;9.17;;
10605;SDS011;5350;42.698;23.148;2022-11-06T12:16:43;11.73;;;9.95;;
10605;SDS011;5350;42.698;23.148;2022-11-06T12:19:11;11.43;;;10.10;;
10605;SDS011;5350;42.698;23.148;2022-11-06T12:21:39;11.82;;;10.52;;
10605;SDS011;5350;42.698;23.148;2022-11-06T12:24:11;13.57;;;11.43;;
10605;SDS011;5350;42.698;23.148;2022-11-06T12:26:43;17.27;;;13.40;;
10605;SDS011;5350;42.698;23.148;2022-11-06T12:29:17;13.45;;;11.93;;
10605;SDS011;5350;42.698;23.148;2022-11-06T12:31:49;16.13;;;13.23;;
10605;SDS011;5350;42.698;23.148;2022-11-06T12:34:22;14.52;;;11.88;;
10605;SDS011;5350;42.698;23.148;2022-11-06T12:37:01;14.30;;;12.02;;
10605;SDS011;5350;42.698;23.148;2022-11-06T12:39:37;14.23;;;12.68;;
10605;SDS011;5350;42.698;23.148;2022-11-06T12:42:06;15.00;;;11.55;;
10605;SDS011;5350;42.698;23.148;2022-11-06T12:44:38;16.50;;;12.02;;
10605;SDS011;5350;42.698;23.148;2022-11-06T12:47:06;12.63;;;11.13;;
10605;SDS011;5350;42.698;23.148;2022-11-06T12:49:45;15.02;;;11.32;;
10605;SDS011;5350;42.698;23.148;2022-11-06T12:52:26;12.45;;;11.00;;
10605;SDS011;5350;42.698;23.148;2022-11-06T12:55:09;12.55;;;9.98;;
10605;SDS011;5350;42.698;23.148;2022-11-06T12:57:56;13.05;;;10.20;;
10605;SDS011;5350;42.698;23.148;2022-11-06T13:00:35;11.63;;;9.10;;
10605;SDS011;5350;42.698;23.148;2022-11-06T13:03:34;12.02;;;9.98;;
10605;SDS011;5350;42.698;23.148;2022-11-06T13:06:18;11.10;;;9.63;;
10605;SDS011;5350;42.698;23.148;2022-11-06T13:08:52;11.77;;;8.52;;
10605;SDS011;5350;42.698;23.148;2022-11-06T13:11:29;9.35;;;8.00;;
10605;SDS011;5350;42.698;23.148;2022-11-06T13:14:05;9.55;;;8.18;;
10605;SDS011;5350;42.698;23.148;2022-11-06T13:16:42;12.57;;;9.32;;
10605;SDS011;5350;42.698;23.148;2022-11-06T13:19:16;11.02;;;9.15;;
10605;SDS011;5350;42.698;23.148;2022-11-06T13:21:59;13.40;;;10.55;;
10605;SDS011;5350;42.698;23.148;2022-11-06T13:24:35;10.88;;;9.07;;
10605;SDS011;5350;42.698;23.148;2022-11-06T13:27:09;9.80;;;8.65;;
10605;SDS011;5350;42.698;23.148;2022-11-06T13:29:44;10.82;;;7.82;;
10605;SDS011;5350;42.698;23.148;2022-11-06T13:32:14;8.15;;;7.30;;
10605;SDS011;5350;42.698;23.148;2022-11-06T13:34:42;8.13;;;7.10;;
10605;SDS011;5350;42.698;23.148;2022-11-06T13:37:13;10.13;;;8.45;;
10605;SDS011;5350;42.698;23.148;2022-11-06T13:39:44;10.32;;;8.40;;
10605;SDS011;5350;42.698;23.148;2022-11-06T13:42:19;11.57;;;9.65;;
10605;SDS011;5350;42.698;23.148;2022-11-06T13:44:48;10.10;;;7.40;;
10605;SDS011;5350;42.698;23.148;2022-11-06T13:47:18;8.25;;;7.40;;
10605;SDS011;5350;42.698;23.148;2022-11-06T13:49:53;9.63;;;7.68;;
10605;SDS011;5350;42.698;23.148;2022-11-06T13:52:28;8.32;;;7.47;;
10605;SDS011;5350;42.698;23.148;2022-11-06T13:55:05;12.77;;;10.60;;
10605;SDS011;5350;42.698;23.148;2022-11-06T13:57:42;10.40;;;8.27;;
10605;SDS011;5350;42.698;23.148;2022-11-06T14:00:34;9.70;;;8.07;;
10605;SDS011;5350;42.698;23.148;2022-11-06T14:03:20;8.45;;;7.55;;
10605;SDS011;5350;42.698;23.148;2022-11-06T14:06:02;10.77;;;7.38;;
10605;SDS011;5350;42.698;23.148;2022-11-06T14:08:31;8.60;;;7.70;;
10605;SDS011;5350;42.698;23.148;2022-11-06T14:11:05;9.98;;;8.70;;
10605;SDS011;5350;42.698;23.148;2022-11-06T14:13:37;9.90;;;8.55;;
10605;SDS011;5350;42.698;23.148;2022-11-06T14:16:06;9.30;;;8.32;;
10605;SDS011;5350;42.698;23.148;2022-11-06T14:18:55;10.23;;;7.88;;
10605;SDS011;5350;42.698;23.148;2022-11-06T14:21:34;9.80;;;8.43;;
10605;SDS011;5350;42.698;23.148;2022-11-06T14:24:13;9.38;;;8.10;;
10605;SDS011;5350;42.698;23.148;2022-11-06T14:26:43;10.60;;;8.05;;
10605;SDS011;5350;42.698;23.148;2022-11-06T14:32:35;13.52;;;10.65;;
10605;SDS011;5350;42.698;23.148;2022-11-06T14:38:15;12.18;;;10.45;;
10605;SDS011;5350;42.698;23.148;2022-11-06T14:40:58;15.18;;;11.68;;
10605;SDS011;5350;42.698;23.148;2022-11-06T14:43:26;18.35;;;10.00;;
10605;SDS011;5350;42.698;23.148;2022-11-06T14:45:56;19.48;;;10.95;;
10605;SDS011;5350;42.698;23.148;2022-11-06T14:48:26;10.25;;;8.82;;
10605;SDS011;5350;42.698;23.148;2022-11-06T14:50:56;12.65;;;9.93;;
10605;SDS011;5350;42.698;23.148;2022-11-06T14:53:28;10.55;;;9.50;;
10605;SDS011;5350;42.698;23.148;2022-11-06T14:55:58;12.88;;;10.27;;